Time;durP1;ratioP1;P1;durP2;ratioP2;P2;SDS_P1;SDS_P2;PMS_P1;PMS_P2;Temp;Humidity;BMP_temperature;BMP_pressure;BME280_temperature;BME280_humidity;BME280_pressure;Samples;Min_cycle;Max_cycle;Signal;HPM_P1;HPM_P2
2023/08/23 00:01:11;;;;;;;;;;;26.10;59.20;;;;;;5053042;28;20258;-55
2023/08/23 00:03:36;;;;;;;;;;;26.10;59.30;;;;;;5051599;28;19948;-55
2023/08/23 00:06:02;;;;;;;;;;;26.10;59.30;;;;;;5053368;28;19909;-54
2023/08/23 00:08:27;;;;;;;;;;;26.10;59.30;;;;;;5051673;28;19919;-55
2023/08/23 00:10:54;;;;;;;;;;;26.10;59.50;;;;;;5053044;28;19916;-55
2023/08/23 00:13:19;;;;;;;;;;;26.10;59.60;;;;;;5052595;28;19913;-54
2023/08/23 00:15:45;;;;;;;;;;;26.10;59.60;;;;;;5052928;28;19909;-54
2023/08/23 00:18:10;;;;;;;;;;;26.10;59.70;;;;;;5053123;28;20361;-54
2023/08/23 00:20:36;;;;;;;;;;;26.10;59.80;;;;;;5052757;28;20289;-55
2023/08/23 00:23:01;;;;;;;;;;;26.00;59.70;;;;;;5050669;28;19997;-55
2023/08/23 00:25:27;;;;;;;;;;;26.10;59.80;;;;;;5052068;28;19917;-54
2023/08/23 00:27:52;;;;;;;;;;;26.00;59.80;;;;;;5052860;28;19908;-55
2023/08/23 00:30:18;;;;;;;;;;;26.10;59.90;;;;;;5052812;28;20360;-55
2023/08/23 00:32:43;;;;;;;;;;;26.10;59.80;;;;;;5052681;28;19919;-55
2023/08/23 00:35:09;;;;;;;;;;;26.10;59.80;;;;;;5052784;28;19948;-55
2023/08/23 00:37:34;;;;;;;;;;;26.10;59.80;;;;;;5052750;28;19909;-56
2023/08/23 00:40:00;;;;;;;;;;;26.10;60.00;;;;;;5046856;28;20011;-55
2023/08/23 00:42:25;;;;;;;;;;;26.10;59.90;;;;;;5052602;28;19915;-54
2023/08/23 00:44:50;;;;;;;;;;;26.00;60.00;;;;;;5052658;28;20327;-55
2023/08/23 00:47:16;;;;;;;;;;;26.10;60.10;;;;;;5052663;28;19916;-55
2023/08/23 00:49:41;;;;;;;;;;;26.10;60.00;;;;;;5052566;28;19915;-55
2023/08/23 00:52:07;;;;;;;;;;;26.00;60.10;;;;;;5051238;28;19964;-55
2023/08/23 00:54:32;;;;;;;;;;;26.00;61.00;;;;;;5049840;28;19914;-55
2023/08/23 00:56:59;;;;;;;;;;;26.00;60.20;;;;;;5051523;28;19916;-55
2023/08/23 00:59:25;;;;;;;;;;;26.00;60.50;;;;;;5052551;28;19932;-55
2023/08/23 01:01:50;;;;;;;;;;;26.00;60.30;;;;;;5052533;28;20396;-56
2023/08/23 01:04:16;;;;;;;;;;;25.90;60.50;;;;;;5034565;28;20354;-55
2023/08/23 01:06:46;;;;;;;;;;;25.90;61.00;;;;;;5054297;28;20282;-55
2023/08/23 01:09:14;;;;;;;;;;;26.00;60.70;;;;;;5048047;28;20284;-56
2023/08/23 01:11:41;;;;;;;;;;;26.00;60.80;;;;;;5036162;28;19913;-54
2023/08/23 01:14:13;;;;;;;;;;;26.00;61.10;;;;;;5045077;28;19921;-54
2023/08/23 01:16:38;;;;;;;;;;;26.00;61.20;;;;;;5056086;28;19953;-56
2023/08/23 01:19:08;;;;;;;;;;;26.00;61.10;;;;;;5054748;28;19912;-55
2023/08/23 01:21:36;;;;;;;;;;;25.90;61.20;;;;;;5038026;28;19912;-55
2023/08/23 01:24:08;;;;;;;;;;;25.90;61.70;;;;;;5036134;28;20411;-54
2023/08/23 01:26:42;;;;;;;;;;;25.90;61.40;;;;;;5044783;28;19908;-54
2023/08/23 01:29:08;;;;;;;;;;;25.90;61.80;;;;;;5021802;28;19908;-55
2023/08/23 01:31:35;;;;;;;;;;;25.90;61.50;;;;;;5055734;28;20007;-56
2023/08/23 01:34:03;;;;;;;;;;;25.90;61.50;;;;;;5036637;28;19917;-55
2023/08/23 01:36:29;;;;;;;;;;;25.90;61.50;;;;;;5037855;28;20381;-55
2023/08/23 01:38:54;;;;;;;;;;;25.90;61.70;;;;;;5054602;28;19916;-56
2023/08/23 01:41:20;;;;;;;;;;;25.90;61.70;;;;;;5055625;28;19909;-54
2023/08/23 01:43:45;;;;;;;;;;;25.90;62.20;;;;;;5055541;28;19909;-55
2023/08/23 01:46:11;;;;;;;;;;;25.90;61.80;;;;;;5055494;28;19987;-55
2023/08/23 01:48:36;;;;;;;;;;;25.90;61.70;;;;;;5054096;28;19913;-55
2023/08/23 01:51:02;;;;;;;;;;;25.90;61.80;;;;;;5055411;28;20008;-55
2023/08/23 01:53:27;;;;;;;;;;;25.90;62.00;;;;;;5055600;28;19912;-54
2023/08/23 01:55:53;;;;;;;;;;;25.90;61.90;;;;;;5053372;28;20434;-55
2023/08/23 01:58:19;;;;;;;;;;;25.90;61.80;;;;;;5055273;28;20304;-55
2023/08/23 02:00:47;;;;;;;;;;;25.90;62.00;;;;;;5055328;28;19952;-54
2023/08/23 02:03:13;;;;;;;;;;;25.90;62.10;;;;;;5052941;28;19958;-55
2023/08/23 02:05:38;;;;;;;;;;;25.90;62.30;;;;;;5054372;28;19962;-55
2023/08/23 02:08:04;;;;;;;;;;;25.90;62.10;;;;;;5055081;28;19908;-54
2023/08/23 02:10:29;;;;;;;;;;;25.90;62.40;;;;;;5036174;28;19995;-54
2023/08/23 02:12:55;;;;;;;;;;;25.90;62.00;;;;;;5054870;28;20430;-56
2023/08/23 02:15:20;;;;;;;;;;;25.90;62.10;;;;;;5054874;28;20008;-55
2023/08/23 02:17:45;;;;;;;;;;;25.90;62.30;;;;;;5054013;28;20388;-55
2023/08/23 02:20:11;;;;;;;;;;;25.90;62.40;;;;;;5045116;28;20296;-55
2023/08/23 02:22:36;;;;;;;;;;;25.90;62.40;;;;;;5034849;28;19948;-55
2023/08/23 02:25:02;;;;;;;;;;;25.90;62.30;;;;;;5038669;28;19912;-55
2023/08/23 02:27:27;;;;;;;;;;;25.90;62.60;;;;;;5055050;28;19955;-55
2023/08/23 02:29:53;;;;;;;;;;;25.90;62.80;;;;;;5054678;28;19912;-55
2023/08/23 02:32:18;;;;;;;;;;;25.90;62.80;;;;;;5053209;28;19921;-54
2023/08/23 02:34:44;;;;;;;;;;;25.80;62.40;;;;;;5054685;28;19967;-55
2023/08/23 02:37:09;;;;;;;;;;;25.90;62.50;;;;;;5054463;28;19980;-55
2023/08/23 02:39:34;;;;;;;;;;;25.80;62.60;;;;;;5054570;28;20387;-55
2023/08/23 02:42:00;;;;;;;;;;;25.80;62.50;;;;;;5051441;28;20357;-54
2023/08/23 02:44:25;;;;;;;;;;;25.90;63.50;;;;;;5054452;28;20273;-54
2023/08/23 02:46:51;;;;;;;;;;;25.80;62.60;;;;;;5054580;28;19909;-55
2023/08/23 02:49:16;;;;;;;;;;;25.90;62.80;;;;;;5054395;28;19915;-55
2023/08/23 02:51:42;;;;;;;;;;;25.80;63.00;;;;;;5054231;28;20003;-55
2023/08/23 02:54:07;;;;;;;;;;;25.80;63.10;;;;;;5054098;28;19913;-54
2023/08/23 02:56:33;;;;;;;;;;;25.80;63.10;;;;;;5052435;28;19966;-55
2023/08/23 02:58:58;;;;;;;;;;;25.80;63.20;;;;;;5054106;28;19916;-55
2023/08/23 03:01:23;;;;;;;;;;;25.80;63.40;;;;;;5052797;28;20007;-55
2023/08/23 03:03:49;;;;;;;;;;;25.80;63.40;;;;;;5054016;28;19928;-56
2023/08/23 03:06:14;;;;;;;;;;;25.80;63.50;;;;;;5053954;28;19916;-54
2023/08/23 03:08:40;;;;;;;;;;;25.80;63.60;;;;;;5053957;28;19909;-54
2023/08/23 03:11:05;;;;;;;;;;;25.70;63.60;;;;;;5046666;28;19913;-55
2023/08/23 03:13:31;;;;;;;;;;;25.80;63.70;;;;;;5051072;28;20305;-55
2023/08/23 03:15:56;;;;;;;;;;;25.70;63.70;;;;;;5069355;28;19912;-55
2023/08/23 03:18:22;;;;;;;;;;;25.70;63.80;;;;;;5052439;28;19909;-54
2023/08/23 03:20:48;;;;;;;;;;;25.70;63.80;;;;;;5053618;28;20052;-55
2023/08/23 03:23:14;;;;;;;;;;;25.70;63.80;;;;;;5053592;28;20007;-54
2023/08/23 03:25:39;;;;;;;;;;;25.70;63.90;;;;;;5050431;28;19952;-55
2023/08/23 03:28:05;;;;;;;;;;;25.70;64.00;;;;;;5053557;28;19909;-54
2023/08/23 03:30:30;;;;;;;;;;;25.70;64.10;;;;;;5053526;28;19909;-55
2023/08/23 03:32:56;;;;;;;;;;;25.70;64.20;;;;;;5053385;28;20433;-54
2023/08/23 03:35:21;;;;;;;;;;;25.70;64.20;;;;;;5053676;28;20319;-56
2023/08/23 03:37:46;;;;;;;;;;;25.70;64.20;;;;;;5053447;28;20284;-54
2023/08/23 03:40:12;;;;;;;;;;;25.60;64.20;;;;;;5052260;28;20269;-55
2023/08/23 03:42:37;;;;;;;;;;;25.60;64.30;;;;;;5051870;28;19913;-55
2023/08/23 03:45:03;;;;;;;;;;;25.60;64.40;;;;;;5053179;28;19908;-55
2023/08/23 03:47:29;;;;;;;;;;;25.60;64.40;;;;;;5053150;28;20019;-55
2023/08/23 03:49:55;;;;;;;;;;;25.60;64.50;;;;;;5053225;28;20331;-55
2023/08/23 03:52:20;;;;;;;;;;;25.60;64.70;;;;;;5052969;28;19967;-55
2023/08/23 03:54:46;;;;;;;;;;;25.60;64.90;;;;;;5052393;28;19908;-56
2023/08/23 03:57:11;;;;;;;;;;;25.60;64.90;;;;;;5051907;28;20011;-55
2023/08/23 03:59:37;;;;;;;;;;;25.60;64.80;;;;;;5051763;28;19913;-55
2023/08/23 04:02:02;;;;;;;;;;;25.60;64.90;;;;;;5068451;28;19937;-55
2023/08/23 04:04:28;;;;;;;;;;;25.60;64.90;;;;;;5053280;28;19909;-54
2023/08/23 04:06:53;;;;;;;;;;;25.60;64.90;;;;;;5051616;28;19913;-55
2023/08/23 04:09:19;;;;;;;;;;;25.50;64.70;;;;;;5052928;28;19951;-54
2023/08/23 04:11:44;;;;;;;;;;;25.50;64.90;;;;;;5051631;28;19938;-55
2023/08/23 04:14:09;;;;;;;;;;;25.60;65.10;;;;;;5049665;28;19924;-55
2023/08/23 04:16:35;;;;;;;;;;;25.60;64.90;;;;;;5033089;28;19948;-55
2023/08/23 04:19:00;;;;;;;;;;;25.50;65.00;;;;;;5032768;28;20048;-55
2023/08/23 04:21:26;;;;;;;;;;;25.50;65.90;;;;;;5032878;28;19909;-55
2023/08/23 04:23:52;;;;;;;;;;;25.50;65.20;;;;;;5032857;28;20015;-55
2023/08/23 04:26:17;;;;;;;;;;;25.50;65.20;;;;;;5033326;28;19909;-55
2023/08/23 04:28:43;;;;;;;;;;;25.50;65.10;;;;;;5050703;28;19909;-54
2023/08/23 04:31:08;;;;;;;;;;;25.50;65.20;;;;;;5052669;28;19913;-55
2023/08/23 04:33:37;;;;;;;;;;;25.50;65.00;;;;;;5052529;28;19913;-55
2023/08/23 04:36:03;;;;;;;;;;;25.50;65.00;;;;;;5052757;28;19948;-55
2023/08/23 04:38:28;;;;;;;;;;;25.50;64.90;;;;;;5052577;28;20340;-54
2023/08/23 04:41:00;;;;;;;;;;;25.50;64.90;;;;;;5051746;28;19909;-55
2023/08/23 04:43:25;;;;;;;;;;;25.50;64.90;;;;;;5042607;28;19925;-54
2023/08/23 04:45:52;;;;;;;;;;;25.50;65.00;;;;;;5055251;28;19958;-55
2023/08/23 04:48:17;;;;;;;;;;;25.50;65.00;;;;;;5056728;28;19916;-55
2023/08/23 04:50:43;;;;;;;;;;;25.50;65.00;;;;;;5056688;28;19909;-56
2023/08/23 04:53:09;;;;;;;;;;;25.50;64.80;;;;;;5071807;28;19916;-55
2023/08/23 04:55:34;;;;;;;;;;;25.50;64.80;;;;;;5055746;28;20258;-55
2023/08/23 04:58:00;;;;;;;;;;;25.50;65.70;;;;;;5055375;28;19913;-55
2023/08/23 05:00:25;;;;;;;;;;;25.50;65.00;;;;;;5056192;28;19923;-55
2023/08/23 05:02:50;;;;;;;;;;;25.50;64.90;;;;;;5054930;28;19908;-55
2023/08/23 05:05:16;;;;;;;;;;;25.50;64.90;;;;;;5056290;28;19908;-56
2023/08/23 05:07:41;;;;;;;;;;;25.50;64.90;;;;;;5071675;28;19968;-54
2023/08/23 05:10:07;;;;;;;;;;;25.50;65.00;;;;;;5056445;28;19909;-55
2023/08/23 05:12:32;;;;;;;;;;;25.50;65.00;;;;;;5054178;28;19971;-55
2023/08/23 05:14:58;;;;;;;;;;;25.50;65.00;;;;;;5055747;28;19925;-54
2023/08/23 05:17:24;;;;;;;;;;;25.50;64.90;;;;;;5055905;28;19909;-55
2023/08/23 05:19:49;;;;;;;;;;;25.50;64.90;;;;;;5053843;28;20414;-55
2023/08/23 05:22:15;;;;;;;;;;;25.50;64.90;;;;;;5055922;28;20276;-55
2023/08/23 05:24:40;;;;;;;;;;;25.50;64.90;;;;;;5055414;28;19912;-54
2023/08/23 05:27:06;;;;;;;;;;;25.50;64.90;;;;;;5055813;28;19916;-55
2023/08/23 05:29:31;;;;;;;;;;;25.50;64.90;;;;;;5036720;28;19921;-55
2023/08/23 05:31:57;;;;;;;;;;;25.50;64.90;;;;;;5035652;28;19909;-55
2023/08/23 05:34:22;;;;;;;;;;;25.40;64.90;;;;;;5035662;28;19910;-54
2023/08/23 05:36:47;;;;;;;;;;;25.50;65.00;;;;;;5050550;28;19917;-55
2023/08/23 05:39:13;;;;;;;;;;;25.40;65.00;;;;;;5053139;28;20005;-55
2023/08/23 05:41:38;;;;;;;;;;;25.40;65.00;;;;;;5055584;28;19983;-55
2023/08/23 05:44:04;;;;;;;;;;;25.40;65.00;;;;;;5054479;28;20376;-55
2023/08/23 05:46:29;;;;;;;;;;;25.40;65.00;;;;;;5055450;28;20276;-54
2023/08/23 05:48:55;;;;;;;;;;;25.40;65.10;;;;;;5055426;28;19909;-54
2023/08/23 05:51:21;;;;;;;;;;;25.40;65.10;;;;;;5055300;28;19909;-55
2023/08/23 05:53:46;;;;;;;;;;;25.40;65.20;;;;;;5052707;28;20270;-55
2023/08/23 05:56:12;;;;;;;;;;;25.40;65.20;;;;;;5054588;28;19913;-55
2023/08/23 05:58:37;;;;;;;;;;;25.40;65.20;;;;;;5053926;28;19960;-55
2023/08/23 06:01:03;;;;;;;;;;;25.40;65.30;;;;;;5070723;28;19916;-55
2023/08/23 06:03:28;;;;;;;;;;;25.40;65.30;;;;;;5055220;28;20274;-55
2023/08/23 06:05:54;;;;;;;;;;;25.40;65.40;;;;;;5053845;28;19932;-54
2023/08/23 06:08:20;;;;;;;;;;;25.40;65.40;;;;;;5053690;28;19909;-55
2023/08/23 06:10:46;;;;;;;;;;;25.30;65.40;;;;;;5035310;28;19916;-55
2023/08/23 06:13:11;;;;;;;;;;;25.40;65.60;;;;;;5035693;28;20404;-55
2023/08/23 06:15:36;;;;;;;;;;;25.40;66.40;;;;;;5053701;28;20395;-55
2023/08/23 06:18:02;;;;;;;;;;;25.40;65.60;;;;;;5041578;28;19963;-56
2023/08/23 06:20:28;;;;;;;;;;;25.30;65.50;;;;;;5054770;28;19909;-55
2023/08/23 06:22:55;;;;;;;;;;;25.30;65.60;;;;;;5054520;28;19909;-55
2023/08/23 06:25:21;;;;;;;;;;;25.30;65.60;;;;;;5046312;28;19916;-55
2023/08/23 06:27:46;;;;;;;;;;;25.30;65.70;;;;;;5034828;28;19909;-55
2023/08/23 06:30:15;;;;;;;;;;;25.40;65.80;;;;;;5049942;28;19955;-56
2023/08/23 06:32:45;;;;;;;;;;;25.30;66.00;;;;;;5052393;28;19923;-55
2023/08/23 06:35:10;;;;;;;;;;;25.30;65.90;;;;;;5054424;28;20323;-55
2023/08/23 06:37:36;;;;;;;;;;;25.30;66.00;;;;;;5054469;28;19913;-55
2023/08/23 06:40:02;;;;;;;;;;;25.30;66.10;;;;;;5053160;28;20361;-55
2023/08/23 06:42:28;;;;;;;;;;;25.30;66.10;;;;;;5053284;28;19913;-55
2023/08/23 06:44:54;;;;;;;;;;;25.30;66.10;;;;;;5052551;28;20018;-54
2023/08/23 06:47:20;;;;;;;;;;;25.20;66.20;;;;;;5054353;28;20083;-54
2023/08/23 06:49:45;;;;;;;;;;;25.30;66.20;;;;;;5054403;28;19976;-55
2023/08/23 06:52:11;;;;;;;;;;;25.30;66.20;;;;;;5052815;28;19912;-55
2023/08/23 06:54:36;;;;;;;;;;;25.20;66.20;;;;;;5052456;28;19967;-54
2023/08/23 06:57:02;;;;;;;;;;;25.20;66.30;;;;;;5026981;28;19909;-55
2023/08/23 06:59:29;;;;;;;;;;;25.20;66.30;;;;;;5039517;28;20202;-56
2023/08/23 07:01:54;;;;;;;;;;;25.20;66.30;;;;;;5053910;28;19995;-55
2023/08/23 07:04:20;;;;;;;;;;;25.20;66.30;;;;;;5053447;28;20376;-55
2023/08/23 07:06:45;;;;;;;;;;;25.20;66.40;;;;;;5037204;28;19960;-54
2023/08/23 07:09:11;;;;;;;;;;;25.20;66.40;;;;;;5033976;28;19910;-56
2023/08/23 07:11:36;;;;;;;;;;;25.20;66.50;;;;;;5033927;28;20369;-55
2023/08/23 07:14:02;;;;;;;;;;;25.20;66.40;;;;;;5040079;28;20368;-55
2023/08/23 07:16:27;;;;;;;;;;;25.20;66.60;;;;;;5069274;28;20400;-54
2023/08/23 07:18:53;;;;;;;;;;;25.10;66.60;;;;;;5053723;28;20026;-55
2023/08/23 07:21:19;;;;;;;;;;;25.10;66.60;;;;;;5068974;28;19913;-54
2023/08/23 07:23:44;;;;;;;;;;;25.20;66.70;;;;;;5053636;28;19908;-54
2023/08/23 07:26:10;;;;;;;;;;;25.20;66.70;;;;;;5041415;28;19956;-55
2023/08/23 07:28:35;;;;;;;;;;;25.20;66.60;;;;;;5033008;28;19912;-54
2023/08/23 07:31:02;;;;;;;;;;;25.20;66.50;;;;;;5033732;28;19983;-54
2023/08/23 07:33:28;;;;;;;;;;;25.20;66.50;;;;;;5033521;28;19920;-55
2023/08/23 07:35:59;;;;;;;;;;;25.20;66.50;;;;;;5033544;28;19909;-56
2023/08/23 07:38:25;;;;;;;;;;;25.20;66.60;;;;;;5033702;28;19916;-55
2023/08/23 07:40:55;;;;;;;;;;;25.20;66.50;;;;;;5032168;28;19910;-55
2023/08/23 07:43:20;;;;;;;;;;;25.20;66.50;;;;;;5033414;28;19916;-56
2023/08/23 07:45:50;;;;;;;;;;;25.20;66.60;;;;;;5038310;28;19913;-55
2023/08/23 07:48:16;;;;;;;;;;;25.20;66.50;;;;;;5068864;28;20007;-56
2023/08/23 07:50:41;;;;;;;;;;;25.20;66.60;;;;;;5053390;28;19944;-54
2023/08/23 07:53:07;;;;;;;;;;;25.20;66.60;;;;;;5051832;28;19920;-56
2023/08/23 07:55:32;;;;;;;;;;;25.20;66.60;;;;;;5051895;28;19917;-54
2023/08/23 07:57:57;;;;;;;;;;;25.20;66.60;;;;;;5052966;28;20004;-54
2023/08/23 08:00:23;;;;;;;;;;;25.20;66.70;;;;;;5051544;28;19908;-55
2023/08/23 08:02:48;;;;;;;;;;;25.20;66.80;;;;;;5051817;28;20415;-55
2023/08/23 08:05:14;;;;;;;;;;;25.20;66.70;;;;;;5051848;28;20435;-55
2023/08/23 08:07:39;;;;;;;;;;;25.20;66.70;;;;;;5052866;28;19935;-55
2023/08/23 08:10:05;;;;;;;;;;;25.20;66.60;;;;;;5052873;28;20008;-56
2023/08/23 08:12:31;;;;;;;;;;;25.20;66.60;;;;;;5053051;28;20423;-55
2023/08/23 08:14:59;;;;;;;;;;;25.20;66.50;;;;;;5061048;28;20011;-55
2023/08/23 08:17:24;;;;;;;;;;;25.20;66.40;;;;;;5042393;28;20022;-55
2023/08/23 08:19:49;;;;;;;;;;;25.20;66.30;;;;;;5052812;28;19908;-55
2023/08/23 08:22:15;;;;;;;;;;;25.20;66.30;;;;;;5051424;28;19920;-55
2023/08/23 08:24:40;;;;;;;;;;;25.20;66.30;;;;;;5050733;28;20293;-54
2023/08/23 08:27:07;;;;;;;;;;;25.20;66.20;;;;;;5051455;28;19908;-55
2023/08/23 08:29:32;;;;;;;;;;;25.20;66.20;;;;;;5051380;28;19917;-55
2023/08/23 08:31:57;;;;;;;;;;;25.20;66.30;;;;;;5052521;28;19909;-55
2023/08/23 08:34:23;;;;;;;;;;;25.20;66.10;;;;;;5068122;28;19909;-55
2023/08/23 08:36:48;;;;;;;;;;;25.20;66.10;;;;;;5052617;28;19913;-55
2023/08/23 08:39:14;;;;;;;;;;;25.20;66.10;;;;;;5052527;28;20000;-54
2023/08/23 08:41:41;;;;;;;;;;;25.20;66.00;;;;;;5052398;28;19913;-54
2023/08/23 08:44:11;;;;;;;;;;;25.20;65.90;;;;;;5043637;28;19913;-56
2023/08/23 08:46:36;;;;;;;;;;;25.20;65.90;;;;;;5032910;28;20386;-55
2023/08/23 08:49:02;;;;;;;;;;;25.20;65.90;;;;;;5032590;28;19909;-55
2023/08/23 08:51:27;;;;;;;;;;;25.30;66.00;;;;;;5032701;28;20408;-54
2023/08/23 08:53:53;;;;;;;;;;;25.20;65.70;;;;;;5032448;28;20011;-55
2023/08/23 08:56:19;;;;;;;;;;;25.30;65.70;;;;;;5033161;28;19913;-54
2023/08/23 08:58:45;;;;;;;;;;;25.30;65.60;;;;;;5031855;28;19913;-55
2023/08/23 09:01:10;;;;;;;;;;;25.30;65.50;;;;;;5014742;28;19920;-55
2023/08/23 09:03:36;;;;;;;;;;;25.30;65.50;;;;;;5032376;28;20015;-55
2023/08/23 09:06:01;;;;;;;;;;;25.30;65.30;;;;;;5033434;28;19918;-54
2023/08/23 09:08:26;;;;;;;;;;;25.30;65.30;;;;;;5032309;28;20357;-55
2023/08/23 09:10:52;;;;;;;;;;;25.30;65.20;;;;;;5031128;28;20369;-55
2023/08/23 09:13:17;;;;;;;;;;;25.30;65.10;;;;;;5033080;28;19961;-55
2023/08/23 09:15:45;;;;;;;;;;;25.30;65.10;;;;;;5032377;28;20381;-55
2023/08/23 09:18:11;;;;;;;;;;;25.30;65.00;;;;;;5050964;28;19924;-56
2023/08/23 09:20:36;;;;;;;;;;;25.30;64.80;;;;;;5052178;28;19909;-55
2023/08/23 09:23:02;;;;;;;;;;;25.20;64.70;;;;;;5052333;28;19916;-55
2023/08/23 09:25:27;;;;;;;;;;;25.30;64.60;;;;;;5051378;28;19935;-55
2023/08/23 09:27:54;;;;;;;;;;;25.30;64.50;;;;;;5054347;28;19932;-54
2023/08/23 09:30:19;;;;;;;;;;;25.30;64.40;;;;;;5053548;28;19916;-55
2023/08/23 09:32:45;;;;;;;;;;;25.30;64.30;;;;;;5037658;28;19917;-56
2023/08/23 09:35:11;;;;;;;;;;;25.30;64.20;;;;;;5055762;28;19975;-55
2023/08/23 09:37:43;;;;;;;;;;;25.30;64.00;;;;;;5055686;28;19909;-54
2023/08/23 09:40:28;;;;;;;;;;;25.30;63.90;;;;;;5037657;28;19916;-54
2023/08/23 09:42:54;;;;;;;;;;;25.30;63.80;;;;;;5054649;28;19932;-54
2023/08/23 09:45:21;;;;;;;;;;;25.30;63.80;;;;;;5054061;28;19909;-56
2023/08/23 09:47:50;;;;;;;;;;;25.30;63.40;;;;;;5055545;28;20011;-54
2023/08/23 09:50:17;;;;;;;;;;;25.30;63.40;;;;;;5055420;28;19931;-54
2023/08/23 09:52:43;;;;;;;;;;;25.30;63.50;;;;;;5055323;28;19967;-55
2023/08/23 09:55:11;;;;;;;;;;;25.30;63.00;;;;;;5054189;28;19920;-55
2023/08/23 09:57:37;;;;;;;;;;;25.30;62.60;;;;;;5037566;28;19943;-55
2023/08/23 10:00:02;;;;;;;;;;;25.40;62.60;;;;;;5053999;28;19915;-55
2023/08/23 10:02:28;;;;;;;;;;;25.40;62.40;;;;;;5054056;28;20007;-55
2023/08/23 10:04:54;;;;;;;;;;;25.40;62.50;;;;;;5037344;28;19909;-54
2023/08/23 10:07:20;;;;;;;;;;;25.40;62.30;;;;;;5054987;28;19935;-55
2023/08/23 10:09:46;;;;;;;;;;;25.40;62.60;;;;;;5036228;28;19909;-55
2023/08/23 10:12:11;;;;;;;;;;;25.50;62.50;;;;;;5054836;28;19920;-54
2023/08/23 10:14:38;;;;;;;;;;;25.60;62.50;;;;;;5053161;28;19925;-55
2023/08/23 10:17:03;;;;;;;;;;;25.50;62.20;;;;;;5036374;28;19913;-54
2023/08/23 10:19:29;;;;;;;;;;;25.50;62.00;;;;;;5035684;28;19912;-55
2023/08/23 10:21:54;;;;;;;;;;;25.60;62.10;;;;;;5053686;28;19913;-54
2023/08/23 10:24:30;;;;;;;;;;;25.60;62.00;;;;;;5054315;28;19972;-55
2023/08/23 10:26:56;;;;;;;;;;;25.60;62.10;;;;;;5034778;28;19909;-55
2023/08/23 10:29:28;;;;;;;;;;;25.70;62.20;;;;;;5041722;28;19958;-55
2023/08/23 10:31:54;;;;;;;;;;;25.70;62.40;;;;;;5036774;28;19908;-56
2023/08/23 10:34:23;;;;;;;;;;;25.70;61.90;;;;;;5054454;28;20391;-55
2023/08/23 10:36:48;;;;;;;;;;;25.70;61.60;;;;;;5054491;28;19909;-56
2023/08/23 10:39:13;;;;;;;;;;;25.70;61.70;;;;;;5053778;28;19909;-55
2023/08/23 10:41:39;;;;;;;;;;;25.80;61.30;;;;;;5036512;28;19939;-55
2023/08/23 10:44:13;;;;;;;;;;;25.80;60.70;;;;;;5033852;28;20050;-55
2023/08/23 10:46:42;;;;;;;;;;;25.80;60.90;;;;;;5046405;28;20396;-54
2023/08/23 10:49:08;;;;;;;;;;;25.80;61.20;;;;;;5054371;28;19915;-55
2023/08/23 10:51:33;;;;;;;;;;;25.80;61.10;;;;;;5054048;28;19909;-56
2023/08/23 10:53:59;;;;;;;;;;;25.90;61.90;;;;;;5054393;28;19917;-55
2023/08/23 10:56:25;;;;;;;;;;;25.90;61.60;;;;;;5035644;28;19955;-55
2023/08/23 10:58:50;;;;;;;;;;;25.90;61.20;;;;;;5052959;28;19913;-55
2023/08/23 11:01:16;;;;;;;;;;;25.80;60.50;;;;;;5052649;28;20399;-55
2023/08/23 11:03:41;;;;;;;;;;;25.80;60.20;;;;;;5054192;28;20327;-55
2023/08/23 11:06:07;;;;;;;;;;;25.80;60.40;;;;;;5053956;28;19916;-56
2023/08/23 11:08:32;;;;;;;;;;;25.90;60.30;;;;;;5053979;28;19955;-55
2023/08/23 11:10:57;;;;;;;;;;;25.90;59.90;;;;;;5035981;28;19909;-54
2023/08/23 11:13:23;;;;;;;;;;;25.90;59.70;;;;;;5053465;28;19920;-55
2023/08/23 11:15:49;;;;;;;;;;;25.90;59.50;;;;;;5050046;28;20237;-54
2023/08/23 11:18:14;;;;;;;;;;;25.90;59.80;;;;;;5034592;28;19917;-55
2023/08/23 11:20:40;;;;;;;;;;;25.90;59.70;;;;;;5032648;28;19963;-55
2023/08/23 11:23:06;;;;;;;;;;;25.90;59.50;;;;;;5033625;28;19932;-55
2023/08/23 11:25:31;;;;;;;;;;;25.90;59.70;;;;;;5034283;28;20384;-55
2023/08/23 11:27:57;;;;;;;;;;;26.00;59.70;;;;;;5032490;28;19909;-55
2023/08/23 11:30:22;;;;;;;;;;;26.00;59.80;;;;;;5045254;28;20418;-55
2023/08/23 11:32:48;;;;;;;;;;;26.10;59.80;;;;;;5068770;28;19923;-55
2023/08/23 11:35:13;;;;;;;;;;;26.00;59.60;;;;;;5053498;28;19995;-55
2023/08/23 11:37:39;;;;;;;;;;;26.10;59.70;;;;;;5053560;28;20103;-55
2023/08/23 11:40:10;;;;;;;;;;;26.10;61.10;;;;;;5068743;28;19912;-56
2023/08/23 11:42:36;;;;;;;;;;;26.10;60.30;;;;;;5059976;28;19912;-55
2023/08/23 11:45:03;;;;;;;;;;;26.20;59.90;;;;;;5047719;28;20336;-56
2023/08/23 11:47:29;;;;;;;;;;;26.20;59.30;;;;;;5033134;28;20342;-55
2023/08/23 11:49:55;;;;;;;;;;;26.20;59.00;;;;;;5033159;28;19924;-55
2023/08/23 11:52:20;;;;;;;;;;;26.10;58.70;;;;;;5033110;28;19920;-55
2023/08/23 11:54:46;;;;;;;;;;;26.10;59.10;;;;;;5033814;28;19909;-54
2023/08/23 11:57:15;;;;;;;;;;;26.10;59.30;;;;;;5033039;28;20011;-55
2023/08/23 11:59:41;;;;;;;;;;;26.00;59.20;;;;;;5034287;28;19909;-56
2023/08/23 12:02:07;;;;;;;;;;;26.00;59.10;;;;;;5053123;28;20277;-54
2023/08/23 12:04:32;;;;;;;;;;;26.10;59.00;;;;;;5050973;28;19923;-55
2023/08/23 12:06:58;;;;;;;;;;;26.20;58.90;;;;;;5052200;28;19913;-56
2023/08/23 12:09:25;;;;;;;;;;;26.20;59.00;;;;;;5052896;28;19909;-55
2023/08/23 12:11:52;;;;;;;;;;;26.20;59.00;;;;;;5052900;28;19909;-55
2023/08/23 12:14:18;;;;;;;;;;;26.20;58.80;;;;;;5052534;28;19928;-54
2023/08/23 12:16:44;;;;;;;;;;;26.30;58.90;;;;;;5049208;28;20373;-54
2023/08/23 12:19:09;;;;;;;;;;;26.20;58.50;;;;;;5052685;28;19913;-55
2023/08/23 12:21:34;;;;;;;;;;;26.30;58.60;;;;;;5051513;28;19908;-55
2023/08/23 12:24:00;;;;;;;;;;;26.30;58.60;;;;;;5052846;28;19947;-55
2023/08/23 12:26:25;;;;;;;;;;;26.30;58.60;;;;;;5051790;28;20323;-56
2023/08/23 12:28:51;;;;;;;;;;;26.40;58.70;;;;;;5052638;28;19920;-56
2023/08/23 12:31:16;;;;;;;;;;;26.30;58.20;;;;;;5051040;28;19913;-55
2023/08/23 12:33:43;;;;;;;;;;;26.40;58.60;;;;;;5051895;28;20083;-56
2023/08/23 12:36:09;;;;;;;;;;;26.40;58.20;;;;;;5051343;28;20045;-55
2023/08/23 12:38:34;;;;;;;;;;;26.40;58.10;;;;;;5052544;28;20329;-56
2023/08/23 12:41:00;;;;;;;;;;;26.40;58.70;;;;;;5052599;28;19999;-54
2023/08/23 12:43:25;;;;;;;;;;;26.40;57.80;;;;;;5039006;28;19919;-55
2023/08/23 12:45:51;;;;;;;;;;;26.40;57.60;;;;;;5051225;28;19913;-56
2023/08/23 12:48:16;;;;;;;;;;;26.40;58.00;;;;;;5049883;28;20422;-55
2023/08/23 12:50:42;;;;;;;;;;;26.40;58.00;;;;;;5047272;28;19913;-55
2023/08/23 12:53:07;;;;;;;;;;;26.40;57.80;;;;;;5049021;28;19931;-54
2023/08/23 12:55:33;;;;;;;;;;;26.30;57.60;;;;;;5044973;28;20320;-55
2023/08/23 12:57:59;;;;;;;;;;;26.40;57.90;;;;;;5032752;28;20000;-55
2023/08/23 13:00:24;;;;;;;;;;;26.50;57.80;;;;;;5032694;28;19960;-56
2023/08/23 13:02:49;;;;;;;;;;;26.50;57.80;;;;;;5054232;28;19919;-55
2023/08/23 13:05:15;;;;;;;;;;;26.50;57.70;;;;;;5054867;28;20292;-54
2023/08/23 13:07:40;;;;;;;;;;;26.60;57.90;;;;;;5056151;28;19915;-54
2023/08/23 13:10:06;;;;;;;;;;;26.60;57.70;;;;;;5054917;28;20478;-56
2023/08/23 13:12:32;;;;;;;;;;;26.60;57.50;;;;;;5056083;28;20273;-55
2023/08/23 13:14:57;;;;;;;;;;;26.60;57.90;;;;;;5055922;28;19920;-55
2023/08/23 13:17:23;;;;;;;;;;;26.60;57.70;;;;;;5054506;28;19920;-54
2023/08/23 13:19:48;;;;;;;;;;;26.60;57.30;;;;;;5054881;28;19959;-55
2023/08/23 13:22:13;;;;;;;;;;;26.50;57.20;;;;;;5054116;28;19913;-56
2023/08/23 13:24:39;;;;;;;;;;;26.50;57.40;;;;;;5055167;28;20016;-55
2023/08/23 13:27:04;;;;;;;;;;;26.60;57.30;;;;;;5055944;28;19909;-55
2023/08/23 13:29:31;;;;;;;;;;;26.60;57.40;;;;;;5055646;28;19916;-55
2023/08/23 13:31:57;;;;;;;;;;;26.60;57.70;;;;;;5054646;28;20440;-54
2023/08/23 13:34:22;;;;;;;;;;;26.70;57.90;;;;;;5055707;28;19912;-55
2023/08/23 13:36:48;;;;;;;;;;;26.70;57.20;;;;;;5055738;28;19909;-56
2023/08/23 13:39:13;;;;;;;;;;;26.70;56.90;;;;;;5055769;28;19909;-55
2023/08/23 13:41:39;;;;;;;;;;;26.80;57.00;;;;;;5052346;28;19967;-55
2023/08/23 13:44:05;;;;;;;;;;;26.70;57.10;;;;;;5069773;28;20300;-55
2023/08/23 13:46:30;;;;;;;;;;;26.70;57.10;;;;;;5054240;28;19916;-55
2023/08/23 13:48:56;;;;;;;;;;;26.80;56.70;;;;;;5054838;28;19913;-56
2023/08/23 13:51:21;;;;;;;;;;;26.80;56.70;;;;;;5055416;28;19917;-55
2023/08/23 13:53:48;;;;;;;;;;;26.80;56.60;;;;;;5055365;28;19952;-55
2023/08/23 13:56:16;;;;;;;;;;;26.80;56.60;;;;;;5051696;28;20004;-55
2023/08/23 13:58:42;;;;;;;;;;;26.80;56.60;;;;;;5035278;28;19953;-55
2023/08/23 14:01:07;;;;;;;;;;;26.80;56.60;;;;;;5035305;28;19932;-55
2023/08/23 14:03:33;;;;;;;;;;;26.80;57.00;;;;;;5053233;28;19913;-56
2023/08/23 14:05:59;;;;;;;;;;;26.80;57.00;;;;;;5055261;28;19992;-54
2023/08/23 14:08:25;;;;;;;;;;;26.90;56.50;;;;;;5055329;28;19909;-55